Awendaw, South Carolina
Current Conditions -  °F | °C
As of 11:55 AM on Monday 22 Dec 2014 (Local Time) from KLRO Reporting Station
Light Rain Light Rain  
Wind Chill: 46°   Ceiling: 200
Heat Index: 46°   Visibility: 1mi
Dew Point: 46°   Wind: 3mph
Humidity: 100%   Direction: 30°NNE
Pressure: 30.05"   Gusts: NA
Location:  33.04°N, 79.61°W
Report Text: KLRO 221655Z AUTO 03003KT 1SM -RA OVC002 08/08 A3005 RMK AO2
Loading
Personal Weather Stations






























Interactive Weather Map New forecast layout! Learn more

10-Day Weather Forecast

Advertisements
Track Severe Weather on mobile